Аэропорт: Чебоксары. Чебоксары

ICAO: UWKS

METAR:
2020-10-23 10:30:00
UWKS 231030Z 15005MPS 5000 -RA OVC004 02/02 Q1006 R06/520245 NOSIG RMK QFE740
METAR:
2020-10-23 22:58:00
TAF UWKS 232258Z 2300/2309 15006G13MPS 8000 -SHSN BKN027CB TX00/2309Z TNM03/2301Z TEMPO 2302/2309 1500 SHSNRA OVC004 BKN016CB